sensor_id;sensor_type;location;lat;lon;timestamp;P1;durP1;ratioP1;P2;durP2;ratioP2
13764;SDS011;6953;48.810;9.204;2023-08-06T00:01:58;0.65;;;0.65;;
13764;SDS011;6953;48.810;9.204;2023-08-06T00:04:23;0.70;;;0.70;;
13764;SDS011;6953;48.810;9.204;2023-08-06T00:06:48;0.65;;;0.65;;
13764;SDS011;6953;48.810;9.204;2023-08-06T00:09:14;0.63;;;0.63;;
13764;SDS011;6953;48.810;9.204;2023-08-06T00:11:39;0.60;;;0.60;;
13764;SDS011;6953;48.810;9.204;2023-08-06T00:14:06;0.60;;;0.60;;
13764;SDS011;6953;48.810;9.204;2023-08-06T00:16:31;0.60;;;0.60;;
13764;SDS011;6953;48.810;9.204;2023-08-06T00:18:56;0.70;;;0.70;;
13764;SDS011;6953;48.810;9.204;2023-08-06T00:21:22;0.70;;;0.70;;
13764;SDS011;6953;48.810;9.204;2023-08-06T00:23:47;0.60;;;0.60;;
13764;SDS011;6953;48.810;9.204;2023-08-06T00:26:12;0.70;;;0.70;;
13764;SDS011;6953;48.810;9.204;2023-08-06T00:28:37;0.65;;;0.65;;
13764;SDS011;6953;48.810;9.204;2023-08-06T00:31:03;0.60;;;0.60;;
13764;SDS011;6953;48.810;9.204;2023-08-06T00:33:28;0.60;;;0.60;;
13764;SDS011;6953;48.810;9.204;2023-08-06T00:35:53;0.70;;;0.70;;
13764;SDS011;6953;48.810;9.204;2023-08-06T00:38:19;0.57;;;0.57;;
13764;SDS011;6953;48.810;9.204;2023-08-06T00:40:45;0.75;;;0.75;;
13764;SDS011;6953;48.810;9.204;2023-08-06T00:43:10;0.70;;;0.70;;
13764;SDS011;6953;48.810;9.204;2023-08-06T00:45:36;0.70;;;0.70;;
13764;SDS011;6953;48.810;9.204;2023-08-06T00:48:03;0.80;;;0.80;;
13764;SDS011;6953;48.810;9.204;2023-08-06T00:50:31;0.70;;;0.70;;
13764;SDS011;6953;48.810;9.204;2023-08-06T00:52:56;0.70;;;0.70;;
13764;SDS011;6953;48.810;9.204;2023-08-06T00:55:22;0.70;;;0.70;;
13764;SDS011;6953;48.810;9.204;2023-08-06T00:57:47;0.70;;;0.70;;
13764;SDS011;6953;48.810;9.204;2023-08-06T01:00:13;0.80;;;0.80;;
13764;SDS011;6953;48.810;9.204;2023-08-06T01:02:38;0.80;;;0.80;;
13764;SDS011;6953;48.810;9.204;2023-08-06T01:05:04;0.70;;;0.70;;
13764;SDS011;6953;48.810;9.204;2023-08-06T01:10:29;0.80;;;0.80;;
13764;SDS011;6953;48.810;9.204;2023-08-06T01:13:06;0.90;;;0.90;;
13764;SDS011;6953;48.810;9.204;2023-08-06T01:15:45;0.88;;;0.88;;
13764;SDS011;6953;48.810;9.204;2023-08-06T01:18:14;0.70;;;0.70;;
13764;SDS011;6953;48.810;9.204;2023-08-06T01:20:39;0.80;;;0.80;;
13764;SDS011;6953;48.810;9.204;2023-08-06T01:23:04;0.70;;;0.70;;
13764;SDS011;6953;48.810;9.204;2023-08-06T01:25:32;0.70;;;0.70;;
13764;SDS011;6953;48.810;9.204;2023-08-06T01:28:09;0.80;;;0.80;;
13764;SDS011;6953;48.810;9.204;2023-08-06T01:30:40;0.80;;;0.80;;
13764;SDS011;6953;48.810;9.204;2023-08-06T01:33:06;0.70;;;0.70;;
13764;SDS011;6953;48.810;9.204;2023-08-06T01:35:39;0.70;;;0.70;;
13764;SDS011;6953;48.810;9.204;2023-08-06T01:38:07;0.80;;;0.80;;
13764;SDS011;6953;48.810;9.204;2023-08-06T01:40:32;0.80;;;0.80;;
13764;SDS011;6953;48.810;9.204;2023-08-06T01:42:59;0.80;;;0.80;;
13764;SDS011;6953;48.810;9.204;2023-08-06T01:45:24;0.80;;;0.80;;
13764;SDS011;6953;48.810;9.204;2023-08-06T01:47:49;0.80;;;0.80;;
13764;SDS011;6953;48.810;9.204;2023-08-06T01:50:15;0.70;;;0.70;;
13764;SDS011;6953;48.810;9.204;2023-08-06T01:52:40;0.80;;;0.80;;
13764;SDS011;6953;48.810;9.204;2023-08-06T01:55:05;0.80;;;0.80;;
13764;SDS011;6953;48.810;9.204;2023-08-06T01:57:31;0.70;;;0.70;;
13764;SDS011;6953;48.810;9.204;2023-08-06T01:59:56;0.80;;;0.80;;
13764;SDS011;6953;48.810;9.204;2023-08-06T02:02:21;0.70;;;0.70;;
13764;SDS011;6953;48.810;9.204;2023-08-06T02:04:47;0.80;;;0.80;;
13764;SDS011;6953;48.810;9.204;2023-08-06T02:07:12;0.80;;;0.80;;
13764;SDS011;6953;48.810;9.204;2023-08-06T02:09:37;0.80;;;0.80;;
13764;SDS011;6953;48.810;9.204;2023-08-06T02:12:03;0.77;;;0.77;;
13764;SDS011;6953;48.810;9.204;2023-08-06T02:14:28;0.80;;;0.80;;
13764;SDS011;6953;48.810;9.204;2023-08-06T02:16:54;0.80;;;0.80;;
13764;SDS011;6953;48.810;9.204;2023-08-06T02:19:19;0.90;;;0.90;;
13764;SDS011;6953;48.810;9.204;2023-08-06T02:21:44;0.80;;;0.80;;
13764;SDS011;6953;48.810;9.204;2023-08-06T02:24:10;0.80;;;0.80;;
13764;SDS011;6953;48.810;9.204;2023-08-06T02:26:35;0.70;;;0.70;;
13764;SDS011;6953;48.810;9.204;2023-08-06T02:29:00;0.70;;;0.70;;
13764;SDS011;6953;48.810;9.204;2023-08-06T02:31:26;0.80;;;0.80;;
13764;SDS011;6953;48.810;9.204;2023-08-06T02:33:51;0.80;;;0.80;;
13764;SDS011;6953;48.810;9.204;2023-08-06T02:36:17;0.80;;;0.80;;
13764;SDS011;6953;48.810;9.204;2023-08-06T02:38:42;0.73;;;0.73;;
13764;SDS011;6953;48.810;9.204;2023-08-06T02:41:07;0.80;;;0.80;;
13764;SDS011;6953;48.810;9.204;2023-08-06T02:43:32;0.90;;;0.90;;
13764;SDS011;6953;48.810;9.204;2023-08-06T02:45:58;0.73;;;0.73;;
13764;SDS011;6953;48.810;9.204;2023-08-06T02:48:24;0.70;;;0.70;;
13764;SDS011;6953;48.810;9.204;2023-08-06T02:50:49;0.57;;;0.57;;
13764;SDS011;6953;48.810;9.204;2023-08-06T02:53:15;0.60;;;0.60;;
13764;SDS011;6953;48.810;9.204;2023-08-06T02:55:45;0.70;;;0.70;;
13764;SDS011;6953;48.810;9.204;2023-08-06T02:58:12;0.70;;;0.70;;
13764;SDS011;6953;48.810;9.204;2023-08-06T03:00:38;0.70;;;0.70;;
13764;SDS011;6953;48.810;9.204;2023-08-06T03:03:03;0.60;;;0.60;;
13764;SDS011;6953;48.810;9.204;2023-08-06T03:05:28;0.70;;;0.70;;
13764;SDS011;6953;48.810;9.204;2023-08-06T03:07:54;0.60;;;0.60;;
13764;SDS011;6953;48.810;9.204;2023-08-06T03:10:19;0.60;;;0.60;;
13764;SDS011;6953;48.810;9.204;2023-08-06T03:12:45;0.60;;;0.60;;
13764;SDS011;6953;48.810;9.204;2023-08-06T03:15:10;0.60;;;0.60;;
13764;SDS011;6953;48.810;9.204;2023-08-06T03:17:35;0.60;;;0.60;;
13764;SDS011;6953;48.810;9.204;2023-08-06T03:20:00;0.60;;;0.60;;
13764;SDS011;6953;48.810;9.204;2023-08-06T03:22:26;0.60;;;0.60;;
13764;SDS011;6953;48.810;9.204;2023-08-06T03:24:51;0.60;;;0.60;;
13764;SDS011;6953;48.810;9.204;2023-08-06T03:27:16;0.60;;;0.60;;
13764;SDS011;6953;48.810;9.204;2023-08-06T03:29:42;0.60;;;0.60;;
13764;SDS011;6953;48.810;9.204;2023-08-06T03:32:07;0.60;;;0.60;;
13764;SDS011;6953;48.810;9.204;2023-08-06T03:34:32;0.60;;;0.60;;
13764;SDS011;6953;48.810;9.204;2023-08-06T03:36:58;0.52;;;0.52;;
13764;SDS011;6953;48.810;9.204;2023-08-06T03:39:23;0.50;;;0.50;;
13764;SDS011;6953;48.810;9.204;2023-08-06T03:41:48;0.73;;;0.73;;
13764;SDS011;6953;48.810;9.204;2023-08-06T03:44:13;0.73;;;0.73;;
13764;SDS011;6953;48.810;9.204;2023-08-06T03:46:39;0.80;;;0.80;;
13764;SDS011;6953;48.810;9.204;2023-08-06T03:49:04;0.90;;;0.90;;
13764;SDS011;6953;48.810;9.204;2023-08-06T03:51:29;0.70;;;0.70;;
13764;SDS011;6953;48.810;9.204;2023-08-06T03:53:54;0.70;;;0.70;;
13764;SDS011;6953;48.810;9.204;2023-08-06T03:56:20;0.80;;;0.80;;
13764;SDS011;6953;48.810;9.204;2023-08-06T03:58:45;0.80;;;0.80;;
13764;SDS011;6953;48.810;9.204;2023-08-06T04:01:10;0.85;;;0.85;;
13764;SDS011;6953;48.810;9.204;2023-08-06T04:03:36;0.70;;;0.70;;
13764;SDS011;6953;48.810;9.204;2023-08-06T04:06:04;0.90;;;0.90;;
13764;SDS011;6953;48.810;9.204;2023-08-06T04:08:29;0.90;;;0.90;;
13764;SDS011;6953;48.810;9.204;2023-08-06T04:10:55;0.90;;;0.90;;
13764;SDS011;6953;48.810;9.204;2023-08-06T04:13:20;0.90;;;0.90;;
13764;SDS011;6953;48.810;9.204;2023-08-06T04:15:45;0.80;;;0.80;;
13764;SDS011;6953;48.810;9.204;2023-08-06T04:18:12;0.90;;;0.90;;
13764;SDS011;6953;48.810;9.204;2023-08-06T04:20:46;0.90;;;0.90;;
13764;SDS011;6953;48.810;9.204;2023-08-06T04:23:14;0.90;;;0.90;;
13764;SDS011;6953;48.810;9.204;2023-08-06T04:25:40;0.80;;;0.80;;
13764;SDS011;6953;48.810;9.204;2023-08-06T04:28:05;0.90;;;0.90;;
13764;SDS011;6953;48.810;9.204;2023-08-06T04:30:31;0.90;;;0.90;;
13764;SDS011;6953;48.810;9.204;2023-08-06T04:32:56;0.90;;;0.90;;
13764;SDS011;6953;48.810;9.204;2023-08-06T04:35:22;0.80;;;0.80;;
13764;SDS011;6953;48.810;9.204;2023-08-06T04:37:48;0.90;;;0.90;;
13764;SDS011;6953;48.810;9.204;2023-08-06T04:40:13;0.90;;;0.90;;
13764;SDS011;6953;48.810;9.204;2023-08-06T04:42:38;0.90;;;0.90;;
13764;SDS011;6953;48.810;9.204;2023-08-06T04:45:04;0.90;;;0.90;;
13764;SDS011;6953;48.810;9.204;2023-08-06T04:47:30;0.90;;;0.90;;
13764;SDS011;6953;48.810;9.204;2023-08-06T04:49:55;0.77;;;0.77;;
13764;SDS011;6953;48.810;9.204;2023-08-06T04:52:20;0.80;;;0.80;;
13764;SDS011;6953;48.810;9.204;2023-08-06T04:54:46;0.80;;;0.80;;
13764;SDS011;6953;48.810;9.204;2023-08-06T04:57:11;0.80;;;0.80;;
13764;SDS011;6953;48.810;9.204;2023-08-06T04:59:36;0.80;;;0.80;;
13764;SDS011;6953;48.810;9.204;2023-08-06T05:02:02;0.80;;;0.80;;
13764;SDS011;6953;48.810;9.204;2023-08-06T05:04:27;0.80;;;0.80;;
13764;SDS011;6953;48.810;9.204;2023-08-06T05:06:53;0.80;;;0.80;;
13764;SDS011;6953;48.810;9.204;2023-08-06T05:09:18;0.80;;;0.80;;
13764;SDS011;6953;48.810;9.204;2023-08-06T05:11:43;0.70;;;0.70;;
13764;SDS011;6953;48.810;9.204;2023-08-06T05:14:09;0.80;;;0.80;;
13764;SDS011;6953;48.810;9.204;2023-08-06T05:16:34;0.80;;;0.80;;
13764;SDS011;6953;48.810;9.204;2023-08-06T05:18:59;0.75;;;0.75;;
13764;SDS011;6953;48.810;9.204;2023-08-06T05:21:24;0.70;;;0.70;;
13764;SDS011;6953;48.810;9.204;2023-08-06T05:23:50;0.60;;;0.60;;
13764;SDS011;6953;48.810;9.204;2023-08-06T05:26:15;0.70;;;0.70;;
13764;SDS011;6953;48.810;9.204;2023-08-06T05:28:43;0.70;;;0.70;;
13764;SDS011;6953;48.810;9.204;2023-08-06T05:31:09;0.70;;;0.70;;
13764;SDS011;6953;48.810;9.204;2023-08-06T05:33:34;0.70;;;0.70;;
13764;SDS011;6953;48.810;9.204;2023-08-06T05:35:59;0.70;;;0.70;;
13764;SDS011;6953;48.810;9.204;2023-08-06T05:38:25;0.70;;;0.70;;
13764;SDS011;6953;48.810;9.204;2023-08-06T05:40:50;0.70;;;0.70;;
13764;SDS011;6953;48.810;9.204;2023-08-06T05:43:15;0.60;;;0.60;;
13764;SDS011;6953;48.810;9.204;2023-08-06T05:45:44;0.60;;;0.60;;
13764;SDS011;6953;48.810;9.204;2023-08-06T05:48:11;0.60;;;0.60;;
13764;SDS011;6953;48.810;9.204;2023-08-06T05:50:36;0.50;;;0.50;;
13764;SDS011;6953;48.810;9.204;2023-08-06T05:53:02;0.50;;;0.50;;
13764;SDS011;6953;48.810;9.204;2023-08-06T05:55:27;0.50;;;0.50;;
13764;SDS011;6953;48.810;9.204;2023-08-06T05:57:53;0.47;;;0.47;;
13764;SDS011;6953;48.810;9.204;2023-08-06T06:00:18;0.50;;;0.50;;
13764;SDS011;6953;48.810;9.204;2023-08-06T06:02:44;0.60;;;0.60;;
13764;SDS011;6953;48.810;9.204;2023-08-06T06:05:09;0.50;;;0.50;;
13764;SDS011;6953;48.810;9.204;2023-08-06T06:07:34;0.50;;;0.50;;
13764;SDS011;6953;48.810;9.204;2023-08-06T06:10:00;0.47;;;0.47;;
13764;SDS011;6953;48.810;9.204;2023-08-06T06:12:25;0.50;;;0.50;;
13764;SDS011;6953;48.810;9.204;2023-08-06T06:14:51;0.50;;;0.50;;
13764;SDS011;6953;48.810;9.204;2023-08-06T06:17:16;0.50;;;0.50;;
13764;SDS011;6953;48.810;9.204;2023-08-06T06:19:41;0.50;;;0.50;;
13764;SDS011;6953;48.810;9.204;2023-08-06T06:22:07;0.50;;;0.50;;
13764;SDS011;6953;48.810;9.204;2023-08-06T06:24:32;0.60;;;0.60;;
13764;SDS011;6953;48.810;9.204;2023-08-06T06:26:57;0.60;;;0.60;;
13764;SDS011;6953;48.810;9.204;2023-08-06T06:29:23;0.70;;;0.70;;
13764;SDS011;6953;48.810;9.204;2023-08-06T06:31:48;0.70;;;0.70;;
13764;SDS011;6953;48.810;9.204;2023-08-06T06:34:13;0.70;;;0.70;;
13764;SDS011;6953;48.810;9.204;2023-08-06T06:36:38;0.70;;;0.70;;
13764;SDS011;6953;48.810;9.204;2023-08-06T06:39:04;0.60;;;0.60;;
13764;SDS011;6953;48.810;9.204;2023-08-06T06:41:29;0.70;;;0.70;;
13764;SDS011;6953;48.810;9.204;2023-08-06T06:43:56;0.70;;;0.70;;
13764;SDS011;6953;48.810;9.204;2023-08-06T06:46:22;0.60;;;0.60;;
13764;SDS011;6953;48.810;9.204;2023-08-06T06:48:47;0.60;;;0.60;;
13764;SDS011;6953;48.810;9.204;2023-08-06T06:51:12;0.70;;;0.70;;
13764;SDS011;6953;48.810;9.204;2023-08-06T06:53:37;0.60;;;0.60;;
13764;SDS011;6953;48.810;9.204;2023-08-06T06:56:03;0.50;;;0.50;;
13764;SDS011;6953;48.810;9.204;2023-08-06T06:58:30;0.52;;;0.52;;
13764;SDS011;6953;48.810;9.204;2023-08-06T07:00:55;0.50;;;0.50;;
13764;SDS011;6953;48.810;9.204;2023-08-06T07:03:21;0.50;;;0.50;;
13764;SDS011;6953;48.810;9.204;2023-08-06T07:05:46;0.50;;;0.50;;
13764;SDS011;6953;48.810;9.204;2023-08-06T07:08:11;0.50;;;0.50;;
13764;SDS011;6953;48.810;9.204;2023-08-06T07:10:37;0.45;;;0.45;;
13764;SDS011;6953;48.810;9.204;2023-08-06T07:13:03;0.40;;;0.40;;
13764;SDS011;6953;48.810;9.204;2023-08-06T07:15:28;0.50;;;0.50;;
13764;SDS011;6953;48.810;9.204;2023-08-06T07:17:54;0.50;;;0.50;;
13764;SDS011;6953;48.810;9.204;2023-08-06T07:20:19;0.50;;;0.50;;
13764;SDS011;6953;48.810;9.204;2023-08-06T07:22:45;0.40;;;0.40;;
13764;SDS011;6953;48.810;9.204;2023-08-06T07:25:10;0.50;;;0.50;;
13764;SDS011;6953;48.810;9.204;2023-08-06T07:27:35;0.40;;;0.40;;
13764;SDS011;6953;48.810;9.204;2023-08-06T07:30:01;0.40;;;0.40;;
13764;SDS011;6953;48.810;9.204;2023-08-06T07:32:26;0.40;;;0.40;;
13764;SDS011;6953;48.810;9.204;2023-08-06T07:34:53;0.40;;;0.40;;
13764;SDS011;6953;48.810;9.204;2023-08-06T07:37:22;0.40;;;0.40;;
13764;SDS011;6953;48.810;9.204;2023-08-06T07:39:47;0.50;;;0.50;;
13764;SDS011;6953;48.810;9.204;2023-08-06T07:42:13;0.45;;;0.45;;
13764;SDS011;6953;48.810;9.204;2023-08-06T07:44:38;0.43;;;0.43;;
13764;SDS011;6953;48.810;9.204;2023-08-06T07:47:04;0.50;;;0.50;;
13764;SDS011;6953;48.810;9.204;2023-08-06T07:49:29;0.40;;;0.40;;
13764;SDS011;6953;48.810;9.204;2023-08-06T07:51:55;0.40;;;0.40;;
13764;SDS011;6953;48.810;9.204;2023-08-06T07:54:20;0.47;;;0.47;;
13764;SDS011;6953;48.810;9.204;2023-08-06T07:56:45;0.50;;;0.50;;
13764;SDS011;6953;48.810;9.204;2023-08-06T07:59:10;0.40;;;0.40;;
13764;SDS011;6953;48.810;9.204;2023-08-06T08:01:36;0.40;;;0.40;;
13764;SDS011;6953;48.810;9.204;2023-08-06T08:04:01;0.40;;;0.40;;
13764;SDS011;6953;48.810;9.204;2023-08-06T08:06:26;0.52;;;0.52;;
13764;SDS011;6953;48.810;9.204;2023-08-06T08:08:51;0.40;;;0.40;;
13764;SDS011;6953;48.810;9.204;2023-08-06T08:11:17;0.40;;;0.40;;
13764;SDS011;6953;48.810;9.204;2023-08-06T08:13:43;0.40;;;0.40;;
13764;SDS011;6953;48.810;9.204;2023-08-06T08:16:09;0.40;;;0.40;;
13764;SDS011;6953;48.810;9.204;2023-08-06T08:18:34;0.40;;;0.40;;
13764;SDS011;6953;48.810;9.204;2023-08-06T08:20:59;0.40;;;0.40;;
13764;SDS011;6953;48.810;9.204;2023-08-06T08:23:25;0.40;;;0.40;;
13764;SDS011;6953;48.810;9.204;2023-08-06T08:25:50;0.30;;;0.30;;
13764;SDS011;6953;48.810;9.204;2023-08-06T08:28:16;0.40;;;0.40;;
13764;SDS011;6953;48.810;9.204;2023-08-06T08:30:41;0.32;;;0.32;;
13764;SDS011;6953;48.810;9.204;2023-08-06T08:33:06;0.38;;;0.38;;
13764;SDS011;6953;48.810;9.204;2023-08-06T08:35:32;0.40;;;0.40;;
13764;SDS011;6953;48.810;9.204;2023-08-06T08:37:58;0.30;;;0.30;;
13764;SDS011;6953;48.810;9.204;2023-08-06T08:40:24;0.40;;;0.40;;
13764;SDS011;6953;48.810;9.204;2023-08-06T08:42:56;0.30;;;0.30;;
13764;SDS011;6953;48.810;9.204;2023-08-06T08:45:22;0.30;;;0.30;;
13764;SDS011;6953;48.810;9.204;2023-08-06T08:47:51;0.30;;;0.30;;
13764;SDS011;6953;48.810;9.204;2023-08-06T08:50:17;0.30;;;0.30;;
13764;SDS011;6953;48.810;9.204;2023-08-06T08:52:44;0.30;;;0.30;;
13764;SDS011;6953;48.810;9.204;2023-08-06T08:55:11;0.40;;;0.40;;
13764;SDS011;6953;48.810;9.204;2023-08-06T08:57:38;0.30;;;0.30;;
13764;SDS011;6953;48.810;9.204;2023-08-06T09:00:04;0.30;;;0.30;;
13764;SDS011;6953;48.810;9.204;2023-08-06T09:02:30;0.30;;;0.30;;
13764;SDS011;6953;48.810;9.204;2023-08-06T09:04:57;0.40;;;0.40;;
13764;SDS011;6953;48.810;9.204;2023-08-06T09:07:29;0.50;;;0.50;;
13764;SDS011;6953;48.810;9.204;2023-08-06T09:10:01;0.43;;;0.43;;
13764;SDS011;6953;48.810;9.204;2023-08-06T09:12:30;0.75;;;0.75;;
13764;SDS011;6953;48.810;9.204;2023-08-06T09:14:56;0.57;;;0.57;;
13764;SDS011;6953;48.810;9.204;2023-08-06T09:17:22;0.40;;;0.40;;
13764;SDS011;6953;48.810;9.204;2023-08-06T09:19:47;0.45;;;0.45;;
13764;SDS011;6953;48.810;9.204;2023-08-06T09:22:14;0.50;;;0.50;;
13764;SDS011;6953;48.810;9.204;2023-08-06T09:24:40;0.50;;;0.50;;
13764;SDS011;6953;48.810;9.204;2023-08-06T09:27:13;0.40;;;0.40;;
13764;SDS011;6953;48.810;9.204;2023-08-06T09:29:40;0.50;;;0.50;;
13764;SDS011;6953;48.810;9.204;2023-08-06T09:32:14;0.45;;;0.45;;
13764;SDS011;6953;48.810;9.204;2023-08-06T09:34:41;0.40;;;0.40;;
13764;SDS011;6953;48.810;9.204;2023-08-06T09:37:08;0.50;;;0.50;;
13764;SDS011;6953;48.810;9.204;2023-08-06T09:39:34;0.40;;;0.40;;
13764;SDS011;6953;48.810;9.204;2023-08-06T09:42:00;0.40;;;0.40;;
13764;SDS011;6953;48.810;9.204;2023-08-06T09:44:27;0.50;;;0.50;;
13764;SDS011;6953;48.810;9.204;2023-08-06T09:46:54;0.40;;;0.40;;
13764;SDS011;6953;48.810;9.204;2023-08-06T09:49:28;0.40;;;0.40;;
13764;SDS011;6953;48.810;9.204;2023-08-06T09:52:06;0.43;;;0.43;;
13764;SDS011;6953;48.810;9.204;2023-08-06T09:54:35;0.40;;;0.40;;
13764;SDS011;6953;48.810;9.204;2023-08-06T09:57:02;0.50;;;0.50;;
13764;SDS011;6953;48.810;9.204;2023-08-06T09:59:28;0.40;;;0.40;;
13764;SDS011;6953;48.810;9.204;2023-08-06T10:01:54;0.40;;;0.40;;
13764;SDS011;6953;48.810;9.204;2023-08-06T10:04:20;0.40;;;0.40;;
13764;SDS011;6953;48.810;9.204;2023-08-06T10:06:46;0.40;;;0.40;;
13764;SDS011;6953;48.810;9.204;2023-08-06T10:09:15;0.50;;;0.50;;
13764;SDS011;6953;48.810;9.204;2023-08-06T10:11:41;0.50;;;0.50;;
13764;SDS011;6953;48.810;9.204;2023-08-06T10:14:11;0.50;;;0.50;;
13764;SDS011;6953;48.810;9.204;2023-08-06T10:16:41;0.60;;;0.60;;
13764;SDS011;6953;48.810;9.204;2023-08-06T10:19:08;0.40;;;0.40;;
13764;SDS011;6953;48.810;9.204;2023-08-06T10:21:35;0.40;;;0.40;;
13764;SDS011;6953;48.810;9.204;2023-08-06T10:24:00;0.40;;;0.40;;
13764;SDS011;6953;48.810;9.204;2023-08-06T10:26:27;0.32;;;0.32;;
13764;SDS011;6953;48.810;9.204;2023-08-06T10:28:54;0.45;;;0.45;;
13764;SDS011;6953;48.810;9.204;2023-08-06T10:31:20;0.40;;;0.40;;
13764;SDS011;6953;48.810;9.204;2023-08-06T10:33:46;0.50;;;0.50;;
13764;SDS011;6953;48.810;9.204;2023-08-06T10:36:13;0.40;;;0.40;;
13764;SDS011;6953;48.810;9.204;2023-08-06T10:38:46;0.40;;;0.40;;
13764;SDS011;6953;48.810;9.204;2023-08-06T10:41:15;0.30;;;0.30;;
13764;SDS011;6953;48.810;9.204;2023-08-06T10:43:42;0.30;;;0.30;;
13764;SDS011;6953;48.810;9.204;2023-08-06T10:46:10;0.30;;;0.30;;
13764;SDS011;6953;48.810;9.204;2023-08-06T10:48:37;0.30;;;0.30;;
13764;SDS011;6953;48.810;9.204;2023-08-06T10:51:09;0.30;;;0.30;;
13764;SDS011;6953;48.810;9.204;2023-08-06T10:53:36;0.30;;;0.30;;
13764;SDS011;6953;48.810;9.204;2023-08-06T10:56:11;0.30;;;0.30;;
13764;SDS011;6953;48.810;9.204;2023-08-06T10:58:40;0.30;;;0.30;;
13764;SDS011;6953;48.810;9.204;2023-08-06T11:01:06;0.30;;;0.30;;
13764;SDS011;6953;48.810;9.204;2023-08-06T11:03:32;0.40;;;0.40;;
13764;SDS011;6953;48.810;9.204;2023-08-06T11:05:59;0.50;;;0.50;;
13764;SDS011;6953;48.810;9.204;2023-08-06T11:08:27;0.50;;;0.50;;
13764;SDS011;6953;48.810;9.204;2023-08-06T11:10:54;0.30;;;0.30;;
13764;SDS011;6953;48.810;9.204;2023-08-06T11:13:20;0.50;;;0.50;;
13764;SDS011;6953;48.810;9.204;2023-08-06T11:15:46;0.50;;;0.50;;
13764;SDS011;6953;48.810;9.204;2023-08-06T11:18:12;0.50;;;0.50;;
13764;SDS011;6953;48.810;9.204;2023-08-06T11:23:59;0.40;;;0.40;;
13764;SDS011;6953;48.810;9.204;2023-08-06T11:26:24;0.40;;;0.40;;
13764;SDS011;6953;48.810;9.204;2023-08-06T11:28:50;0.40;;;0.40;;
13764;SDS011;6953;48.810;9.204;2023-08-06T11:31:24;0.50;;;0.50;;
13764;SDS011;6953;48.810;9.204;2023-08-06T11:33:50;0.40;;;0.40;;
13764;SDS011;6953;48.810;9.204;2023-08-06T11:36:16;0.30;;;0.30;;
13764;SDS011;6953;48.810;9.204;2023-08-06T11:38:42;0.40;;;0.40;;
13764;SDS011;6953;48.810;9.204;2023-08-06T11:41:07;0.40;;;0.40;;
13764;SDS011;6953;48.810;9.204;2023-08-06T11:43:32;0.30;;;0.30;;
13764;SDS011;6953;48.810;9.204;2023-08-06T11:45:58;0.40;;;0.40;;
13764;SDS011;6953;48.810;9.204;2023-08-06T11:48:25;0.40;;;0.40;;
13764;SDS011;6953;48.810;9.204;2023-08-06T11:50:53;0.40;;;0.40;;
13764;SDS011;6953;48.810;9.204;2023-08-06T11:53:19;0.40;;;0.40;;
13764;SDS011;6953;48.810;9.204;2023-08-06T11:55:44;0.40;;;0.40;;
13764;SDS011;6953;48.810;9.204;2023-08-06T11:58:10;0.32;;;0.32;;
13764;SDS011;6953;48.810;9.204;2023-08-06T12:00:36;0.60;;;0.60;;
13764;SDS011;6953;48.810;9.204;2023-08-06T12:03:04;0.90;;;0.90;;
13764;SDS011;6953;48.810;9.204;2023-08-06T12:05:30;1.40;;;1.40;;
13764;SDS011;6953;48.810;9.204;2023-08-06T12:07:58;1.58;;;1.58;;
13764;SDS011;6953;48.810;9.204;2023-08-06T12:10:25;0.30;;;0.30;;
13764;SDS011;6953;48.810;9.204;2023-08-06T12:12:51;0.20;;;0.20;;
13764;SDS011;6953;48.810;9.204;2023-08-06T12:15:17;0.30;;;0.30;;
13764;SDS011;6953;48.810;9.204;2023-08-06T12:17:42;0.30;;;0.30;;
13764;SDS011;6953;48.810;9.204;2023-08-06T12:20:09;0.30;;;0.30;;
13764;SDS011;6953;48.810;9.204;2023-08-06T12:22:35;0.32;;;0.32;;
13764;SDS011;6953;48.810;9.204;2023-08-06T12:25:01;0.32;;;0.32;;
13764;SDS011;6953;48.810;9.204;2023-08-06T12:27:34;0.30;;;0.30;;
13764;SDS011;6953;48.810;9.204;2023-08-06T12:29:59;0.30;;;0.30;;
13764;SDS011;6953;48.810;9.204;2023-08-06T12:32:25;0.30;;;0.30;;
13764;SDS011;6953;48.810;9.204;2023-08-06T12:34:50;0.30;;;0.30;;
13764;SDS011;6953;48.810;9.204;2023-08-06T12:37:15;0.28;;;0.28;;
13764;SDS011;6953;48.810;9.204;2023-08-06T12:39:40;0.22;;;0.22;;
13764;SDS011;6953;48.810;9.204;2023-08-06T12:42:06;0.30;;;0.30;;
13764;SDS011;6953;48.810;9.204;2023-08-06T12:44:31;0.25;;;0.25;;
13764;SDS011;6953;48.810;9.204;2023-08-06T12:46:57;0.30;;;0.30;;
13764;SDS011;6953;48.810;9.204;2023-08-06T12:49:23;0.20;;;0.20;;
13764;SDS011;6953;48.810;9.204;2023-08-06T12:51:50;0.30;;;0.30;;
13764;SDS011;6953;48.810;9.204;2023-08-06T12:54:16;0.20;;;0.20;;
13764;SDS011;6953;48.810;9.204;2023-08-06T12:56:43;0.20;;;0.20;;
13764;SDS011;6953;48.810;9.204;2023-08-06T12:59:09;0.20;;;0.20;;
13764;SDS011;6953;48.810;9.204;2023-08-06T13:01:34;0.20;;;0.20;;
13764;SDS011;6953;48.810;9.204;2023-08-06T13:03:59;0.20;;;0.20;;
13764;SDS011;6953;48.810;9.204;2023-08-06T13:06:25;0.20;;;0.20;;
13764;SDS011;6953;48.810;9.204;2023-08-06T13:08:50;0.20;;;0.20;;
13764;SDS011;6953;48.810;9.204;2023-08-06T13:11:15;0.20;;;0.20;;
13764;SDS011;6953;48.810;9.204;2023-08-06T13:13:41;0.20;;;0.20;;
13764;SDS011;6953;48.810;9.204;2023-08-06T13:16:06;0.10;;;0.10;;
13764;SDS011;6953;48.810;9.204;2023-08-06T13:18:31;0.13;;;0.13;;
13764;SDS011;6953;48.810;9.204;2023-08-06T13:20:57;0.20;;;0.20;;
13764;SDS011;6953;48.810;9.204;2023-08-06T13:23:23;0.20;;;0.20;;
13764;SDS011;6953;48.810;9.204;2023-08-06T13:25:48;0.30;;;0.30;;
13764;SDS011;6953;48.810;9.204;2023-08-06T13:28:13;0.20;;;0.20;;
13764;SDS011;6953;48.810;9.204;2023-08-06T13:30:39;0.10;;;0.10;;
13764;SDS011;6953;48.810;9.204;2023-08-06T13:33:07;0.20;;;0.20;;
13764;SDS011;6953;48.810;9.204;2023-08-06T13:35:33;0.20;;;0.20;;
13764;SDS011;6953;48.810;9.204;2023-08-06T13:37:58;0.20;;;0.20;;
13764;SDS011;6953;48.810;9.204;2023-08-06T13:40:23;0.10;;;0.10;;
13764;SDS011;6953;48.810;9.204;2023-08-06T13:42:48;0.10;;;0.10;;
13764;SDS011;6953;48.810;9.204;2023-08-06T13:45:14;0.20;;;0.20;;
13764;SDS011;6953;48.810;9.204;2023-08-06T13:47:39;0.10;;;0.10;;
13764;SDS011;6953;48.810;9.204;2023-08-06T13:50:04;0.20;;;0.20;;
13764;SDS011;6953;48.810;9.204;2023-08-06T13:52:30;0.20;;;0.20;;
13764;SDS011;6953;48.810;9.204;2023-08-06T13:54:56;0.10;;;0.10;;
13764;SDS011;6953;48.810;9.204;2023-08-06T13:57:21;0.20;;;0.20;;
13764;SDS011;6953;48.810;9.204;2023-08-06T13:59:46;0.10;;;0.10;;
13764;SDS011;6953;48.810;9.204;2023-08-06T14:02:12;0.10;;;0.10;;
13764;SDS011;6953;48.810;9.204;2023-08-06T14:04:37;0.20;;;0.20;;
13764;SDS011;6953;48.810;9.204;2023-08-06T14:07:02;0.20;;;0.20;;
13764;SDS011;6953;48.810;9.204;2023-08-06T14:09:30;0.20;;;0.20;;
13764;SDS011;6953;48.810;9.204;2023-08-06T14:11:56;0.10;;;0.10;;
13764;SDS011;6953;48.810;9.204;2023-08-06T14:14:21;0.20;;;0.20;;
13764;SDS011;6953;48.810;9.204;2023-08-06T14:16:51;0.20;;;0.20;;
13764;SDS011;6953;48.810;9.204;2023-08-06T14:19:17;0.20;;;0.20;;
13764;SDS011;6953;48.810;9.204;2023-08-06T14:21:42;0.20;;;0.20;;
13764;SDS011;6953;48.810;9.204;2023-08-06T14:24:07;0.20;;;0.20;;
13764;SDS011;6953;48.810;9.204;2023-08-06T14:26:32;0.30;;;0.30;;
13764;SDS011;6953;48.810;9.204;2023-08-06T14:28:58;0.20;;;0.20;;
13764;SDS011;6953;48.810;9.204;2023-08-06T14:31:23;0.20;;;0.20;;
13764;SDS011;6953;48.810;9.204;2023-08-06T14:33:48;0.20;;;0.20;;
13764;SDS011;6953;48.810;9.204;2023-08-06T14:36:14;0.30;;;0.30;;
13764;SDS011;6953;48.810;9.204;2023-08-06T14:38:39;0.20;;;0.20;;
13764;SDS011;6953;48.810;9.204;2023-08-06T14:41:04;0.30;;;0.30;;
13764;SDS011;6953;48.810;9.204;2023-08-06T14:43:31;0.10;;;0.10;;
13764;SDS011;6953;48.810;9.204;2023-08-06T14:45:56;0.20;;;0.20;;
13764;SDS011;6953;48.810;9.204;2023-08-06T14:48:21;0.20;;;0.20;;
13764;SDS011;6953;48.810;9.204;2023-08-06T14:50:46;0.20;;;0.20;;
13764;SDS011;6953;48.810;9.204;2023-08-06T14:53:12;0.20;;;0.20;;
13764;SDS011;6953;48.810;9.204;2023-08-06T14:55:38;0.28;;;0.28;;
13764;SDS011;6953;48.810;9.204;2023-08-06T14:58:03;0.20;;;0.20;;
13764;SDS011;6953;48.810;9.204;2023-08-06T15:00:29;0.20;;;0.20;;